Thunderstorms From: 21-05-2018 15:00 Until: 22-05-2018 15:00 warning for: Thunderstorms Level: Yellow info button

Although rather usual in this region, locally or potentially dangerous phenomena are expected. (such as local winds, summer thunderstorms, rising streams or high waves) Be aware and pay attention to the latest weather updates, especially if you carry out activities exposed to weather or close to a stream or shoreline. 


Meteo18 Weather Cam more information Meteo18 Weather Cam


warning for Thunderstorms more information blitzortung!


Rain radar more information rain snow radar


Visit our other weather sites:

Template documentation
and downloads

And another site



Weather Underground History page Text

Daily Summary for December 18, 2017 Units:  English    Metric   Both
« Previous Day
Next Day »
Daily Weekly Monthly Yearly Custom
  High: Low: Average:
Temperature: TemperatureC °F 3.1 °F 6 °F
Dew Point: DewpointC °F 2.5 °F 4.5 °F
Humidity: Humidity % 75 % 90 %
Wind Speed: WindSpeedKMH mph 0.0 mph 9.1 mph
Wind Gust: WindSpeedGustKMH mph - -
Wind:- - South
Pressure: PressurehPa in 1021.9 in -
Precipitation: 10.2 in    
Historical Graphs
 
 
Tabular Data for December 18, 2017
Time Temperature Dew Point Pressure Wind Wind Speed Wind Gust Humidity Rainfall Rate (Hourly)
TemperatureC °F DewpointC °F PressurehPa in Calm     Humidity % HourlyPrecipMM in
00:02 3.1 °F 2.5 °F 1028.3 in SSW 4.8 mph 6.4 mph 96 % 0.0 in
00:07 3.1 °F 2.5 °F 1028.3 in SW 4.8 mph 8.0 mph 96 % 0.0 in
00:12 3.1 °F 2.5 °F 1028.3 in SW 4.8 mph 9.7 mph 96 % 0.0 in
00:17 3.1 °F 2.5 °F 1028.3 in SW 6.4 mph 9.7 mph 96 % 0.0 in
00:22 3.1 °F 2.5 °F 1028.3 in SSW 3.2 mph 9.7 mph 96 % 0.3 in
00:27 3.1 °F 2.5 °F 1028.3 in SSW 4.8 mph 9.7 mph 96 % 0.3 in
00:32 3.1 °F 2.5 °F 1028.0 in SSW 3.2 mph 9.7 mph 96 % 0.3 in
00:37 3.2 °F 2.6 °F 1028.0 in South 4.8 mph 6.4 mph 96 % 0.3 in
00:42 3.3 °F 2.7 °F 1028.0 in SW 9.7 mph 12.9 mph 96 % 0.3 in
00:47 3.3 °F 2.7 °F 1028.0 in WSW 8.0 mph 12.9 mph 96 % 0.3 in
00:52 3.3 °F 2.9 °F 1027.7 in SW 6.4 mph 12.9 mph 97 % 0.3 in
01:02 3.4 °F 3.0 °F 1027.7 in WSW 9.7 mph 12.9 mph 97 % 0.3 in
01:07 3.4 °F 3.0 °F 1027.7 in SSW 8.0 mph 14.5 mph 97 % 0.3 in
01:12 3.5 °F 3.1 °F 1027.7 in SW 9.7 mph 14.5 mph 97 % 0.3 in
01:17 3.5 °F 3.1 °F 1027.3 in SW 6.4 mph 14.5 mph 97 % 0.0 in
01:22 3.6 °F 3.2 °F 1027.3 in SW 12.9 mph 12.9 mph 97 % 0.0 in
01:27 3.6 °F 3.2 °F 1027.3 in SW 11.3 mph 12.9 mph 97 % 0.0 in
01:32 3.6 °F 3.2 °F 1027.3 in SW 8.0 mph 12.9 mph 97 % 0.0 in
01:42 3.7 °F 3.3 °F 1027.3 in SW 3.2 mph 16.1 mph 97 % 0.3 in
01:52 3.8 °F 3.4 °F 1027.0 in SW 4.8 mph 11.3 mph 97 % 0.3 in
01:57 3.8 °F 3.4 °F 1027.0 in SW 4.8 mph 14.5 mph 97 % 0.3 in
02:02 3.8 °F 3.4 °F 1027.0 in SW 6.4 mph 14.5 mph 97 % 0.3 in
02:12 3.9 °F 3.5 °F 1026.6 in SW 8.0 mph 11.3 mph 97 % 0.5 in
02:17 3.9 °F 3.5 °F 1026.6 in SSW 3.2 mph 11.3 mph 97 % 0.5 in
02:22 3.9 °F 3.5 °F 1026.3 in SSW 3.2 mph 11.3 mph 97 % 0.5 in
02:32 4.0 °F 3.6 °F 1026.3 in South 3.2 mph 9.7 mph 97 % 0.8 in
02:37 4.1 °F 3.7 °F 1026.3 in SW 1.6 mph 8.0 mph 97 % 0.5 in
02:42 4.1 °F 3.7 °F 1026.3 in SW 1.6 mph 6.4 mph 97 % 0.8 in
02:47 4.2 °F 3.8 °F 1026.6 in Calm   6.4 mph 97 % 1.0 in
02:52 4.2 °F 3.8 °F 1026.3 in SSE 1.6 mph 4.8 mph 97 % 1.0 in
02:57 4.3 °F 3.9 °F 1026.0 in SSW 1.6 mph 6.4 mph 97 % 1.3 in
03:02 4.4 °F 4.0 °F 1026.0 in SSW 3.2 mph 6.4 mph 97 % 1.5 in
03:07 4.5 °F 4.1 °F 1025.6 in SW 6.4 mph 9.7 mph 97 % 1.3 in
03:12 4.6 °F 4.2 °F 1025.6 in SSW 8.0 mph 9.7 mph 97 % 1.5 in
03:17 4.7 °F 4.3 °F 1025.6 in SW 8.0 mph 8.0 mph 97 % 1.3 in
03:32 5.0 °F 4.6 °F 1025.6 in SW 4.8 mph 9.7 mph 97 % 1.8 in
03:37 5.1 °F 4.7 °F 1025.6 in WSW 6.4 mph 9.7 mph 97 % 1.8 in
03:42 5.1 °F 4.7 °F 1025.3 in SW 4.8 mph 9.7 mph 97 % 2.0 in
03:47 5.2 °F 4.8 °F 1025.3 in SW 4.8 mph 11.3 mph 97 % 2.0 in
03:52 5.2 °F 4.8 °F 1024.9 in WSW 6.4 mph 11.3 mph 97 % 2.3 in
04:02 5.2 °F 4.8 °F 1024.6 in SSW 12.9 mph 14.5 mph 97 % 2.3 in
04:12 5.3 °F 4.9 °F 1024.3 in SSW 6.4 mph 17.7 mph 97 % 2.8 in
04:18 5.3 °F 4.9 °F 1023.9 in SSW 19.3 mph 19.3 mph 97 % 3.0 in
04:27 5.4 °F 5.0 °F 1023.6 in SSW 19.3 mph 20.9 mph 97 % 3.3 in
04:32 5.4 °F 5.0 °F 1023.6 in SW 8.0 mph 20.9 mph 97 % 3.3 in
04:37 5.5 °F 5.1 °F 1023.2 in WSW 17.7 mph 22.5 mph 97 % 3.3 in
04:42 5.5 °F 5.1 °F 1023.2 in WSW 11.3 mph 22.5 mph 97 % 3.3 in
04:52 5.6 °F 5.2 °F 1023.2 in SW 8.0 mph 20.9 mph 97 % 3.3 in
04:57 5.7 °F 5.3 °F 1023.2 in WSW 9.7 mph 20.9 mph 97 % 3.3 in
05:12 5.8 °F 5.4 °F 1022.9 in WSW 4.8 mph 20.9 mph 97 % 2.5 in
05:17 5.8 °F 5.4 °F 1022.9 in WSW 12.9 mph 14.5 mph 97 % 2.0 in
05:22 5.9 °F 5.5 °F 1022.9 in SW 9.7 mph 14.5 mph 97 % 2.0 in
05:27 6.0 °F 5.6 °F 1022.9 in SSW 9.7 mph 22.5 mph 97 % 2.3 in
05:32 6.1 °F 5.7 °F 1022.6 in SW 6.4 mph 22.5 mph 97 % 2.3 in
05:37 6.1 °F 5.7 °F 1022.6 in SW 8.0 mph 22.5 mph 97 % 2.3 in
05:42 6.1 °F 5.7 °F 1022.6 in WSW 6.4 mph 22.5 mph 97 % 2.3 in
05:47 6.1 °F 5.7 °F 1022.6 in WSW 3.2 mph 22.5 mph 97 % 2.3 in
05:57 6.2 °F 5.8 °F 1022.6 in WSW 11.3 mph 19.3 mph 97 % 2.3 in
06:02 6.2 °F 5.8 °F 1022.6 in WSW 4.8 mph 19.3 mph 97 % 2.3 in
06:07 6.2 °F 5.8 °F 1022.2 in WSW 3.2 mph 16.1 mph 97 % 2.3 in
06:12 6.3 °F 5.9 °F 1022.2 in West 3.2 mph 16.1 mph 97 % 2.3 in
06:22 6.3 °F 5.9 °F 1022.2 in West 3.2 mph 16.1 mph 97 % 2.3 in
06:32 6.4 °F 6.0 °F 1022.2 in West 6.4 mph 11.3 mph 97 % 1.5 in
06:42 6.5 °F 6.1 °F 1022.2 in West 8.0 mph 11.3 mph 97 % 1.3 in
06:47 6.6 °F 6.2 °F 1022.2 in WSW 8.0 mph 12.9 mph 97 % 1.0 in
06:52 6.7 °F 6.3 °F 1022.2 in WSW 6.4 mph 12.9 mph 97 % 1.0 in
06:57 6.7 °F 6.3 °F 1022.2 in WNW 9.7 mph 14.5 mph 97 % 0.8 in
07:02 6.8 °F 6.4 °F 1022.6 in West 8.0 mph 14.5 mph 97 % 0.8 in
07:12 6.9 °F 6.5 °F 1022.2 in West 6.4 mph 14.5 mph 97 % 0.5 in
07:22 7.1 °F 6.7 °F 1022.6 in WNW 6.4 mph 14.5 mph 97 % 0.5 in
07:27 7.2 °F 6.8 °F 1022.6 in WNW 9.7 mph 11.3 mph 97 % 0.3 in
07:32 7.4 °F 7.0 °F 1022.6 in WNW 4.8 mph 11.3 mph 97 % 0.3 in
07:37 7.4 °F 6.8 °F 1022.2 in West 3.2 mph 16.1 mph 96 % 0.3 in
07:42 7.5 °F 6.9 °F 1022.2 in WNW 3.2 mph 16.1 mph 96 % 0.3 in
07:47 7.5 °F 6.9 °F 1022.2 in West 3.2 mph 14.5 mph 96 % 0.5 in
07:52 7.5 °F 6.9 °F 1022.2 in Calm   14.5 mph 96 % 0.5 in
08:02 7.6 °F 7.0 °F 1022.2 in WNW 4.8 mph 14.5 mph 96 % 0.5 in
08:12 7.7 °F 7.1 °F 1022.2 in WNW 9.7 mph 11.3 mph 96 % 0.3 in
08:22 7.9 °F 7.3 °F 1021.9 in NW 9.7 mph 11.3 mph 96 % 0.3 in
08:27 7.9 °F 7.3 °F 1022.2 in NW 1.6 mph 12.9 mph 96 % 0.3 in
08:32 8.1 °F 7.5 °F 1022.2 in WNW 6.4 mph 12.9 mph 96 % 0.3 in
08:37 8.2 °F 7.6 °F 1022.2 in WNW 12.9 mph 17.7 mph 96 % 0.3 in
08:42 8.2 °F 7.6 °F 1022.6 in NNW 1.6 mph 17.7 mph 96 % 0.3 in
08:47 8.3 °F 7.5 °F 1022.6 in NW 4.8 mph 19.3 mph 95 % 0.0 in
08:52 8.3 °F 7.5 °F 1022.6 in NNW 6.4 mph 19.3 mph 95 % 0.0 in
08:57 8.3 °F 7.5 °F 1022.6 in WNW 6.4 mph 16.1 mph 95 % 0.0 in
09:02 8.4 °F 7.6 °F 1022.6 in NNW 4.8 mph 16.1 mph 95 % 0.0 in
09:12 8.5 °F 7.7 °F 1022.6 in NW 9.7 mph 19.3 mph 95 % 0.0 in
09:17 8.5 °F 7.7 °F 1022.6 in North 12.9 mph 19.3 mph 95 % 0.0 in
09:22 8.6 °F 7.7 °F 1022.9 in North 6.4 mph 19.3 mph 94 % 0.0 in
09:27 8.5 °F 7.6 °F 1022.9 in NW 6.4 mph 22.5 mph 94 % 0.0 in
09:32 8.6 °F 7.7 °F 1022.9 in NW 14.5 mph 22.5 mph 94 % 0.0 in
09:42 8.6 °F 7.7 °F 1022.9 in WNW 4.8 mph 19.3 mph 94 % 0.0 in
09:52 8.6 °F 7.5 °F 1022.9 in NNW 16.1 mph 19.3 mph 93 % 0.0 in
09:57 8.6 °F 7.5 °F 1023.2 in West 3.2 mph 22.5 mph 93 % 0.0 in
10:02 8.6 °F 7.4 °F 1023.2 in NW 17.7 mph 22.5 mph 92 % 0.0 in
10:12 8.5 °F 7.1 °F 1023.2 in North 17.7 mph 25.7 mph 91 % 0.0 in
10:17 8.5 °F 7.1 °F 1023.2 in NNW 11.3 mph 24.1 mph 91 % 0.0 in
10:22 8.5 °F 7.1 °F 1023.2 in NE 20.9 mph 24.1 mph 91 % 0.0 in
10:32 8.4 °F 7.0 °F 1023.6 in NE 17.7 mph 22.5 mph 91 % 0.0 in
10:37 8.2 °F 6.5 °F 1023.6 in NNW 22.5 mph 27.4 mph 89 % 0.0 in
10:42 8.1 °F 6.2 °F 1023.6 in North 12.9 mph 27.4 mph 88 % 0.0 in
10:52 7.8 °F 5.8 °F 1023.9 in North 12.9 mph 35.4 mph 87 % 0.0 in
11:02 7.8 °F 5.6 °F 1024.3 in NE 22.5 mph 29.0 mph 86 % 0.0 in
11:12 7.8 °F 5.4 °F 1024.3 in North 27.4 mph 27.4 mph 85 % 0.0 in
11:17 7.7 °F 5.7 °F 1024.3 in NNE 11.3 mph 37.0 mph 87 % 0.0 in
11:22 7.7 °F 5.7 °F 1024.3 in NNE 19.3 mph 37.0 mph 87 % 0.0 in
11:27 7.7 °F 5.7 °F 1024.6 in NE 19.3 mph 37.0 mph 87 % 0.0 in
11:32 7.6 °F 5.6 °F 1024.6 in North 12.9 mph 37.0 mph 87 % 0.0 in
11:37 7.7 °F 5.7 °F 1024.3 in NNE 11.3 mph 35.4 mph 87 % 0.0 in
11:42 7.8 °F 5.8 °F 1024.6 in NW 19.3 mph 35.4 mph 87 % 0.0 in
11:47 7.7 °F 5.5 °F 1024.6 in NNW 22.5 mph 27.4 mph 86 % 0.0 in
11:52 7.6 °F 5.4 °F 1024.6 in NE 8.0 mph 27.4 mph 86 % 0.0 in
11:57 7.5 °F 5.3 °F 1024.6 in NNW 17.7 mph 32.2 mph 86 % 0.0 in
12:07 7.4 °F 5.0 °F 1024.6 in NNW 8.0 mph 32.2 mph 85 % 0.0 in
12:12 7.3 °F 4.8 °F 1024.9 in NNW 25.7 mph 32.2 mph 84 % 0.0 in
12:17 7.1 °F 4.6 °F 1024.9 in North 14.5 mph 33.8 mph 84 % 0.0 in
12:22 7.1 °F 4.7 °F 1024.9 in NNW 16.1 mph 33.8 mph 85 % 0.0 in
12:32 7.3 °F 4.8 °F 1024.9 in North 17.7 mph 30.6 mph 84 % 0.0 in
12:37 7.0 °F 4.3 °F 1024.9 in NNE 19.3 mph 32.2 mph 83 % 0.0 in
12:42 6.8 °F 4.1 °F 1024.9 in NE 11.3 mph 32.2 mph 83 % 0.0 in
12:47 6.9 °F 4.4 °F 1024.9 in NNE 9.7 mph 33.8 mph 84 % 0.0 in
12:57 7.1 °F 4.2 °F 1024.9 in NNW 11.3 mph 27.4 mph 82 % 0.0 in
13:02 7.2 °F 4.2 °F 1024.9 in North 20.9 mph 27.4 mph 81 % 0.0 in
13:07 7.3 °F 3.9 °F 1024.9 in North 12.9 mph 25.7 mph 79 % 0.0 in
13:12 7.2 °F 3.1 °F 1024.9 in ENE 22.5 mph 25.7 mph 75 % 0.0 in
13:17 7.1 °F 3.0 °F 1024.9 in ENE 12.9 mph 35.4 mph 75 % 0.0 in
13:22 7.1 °F 3.3 °F 1025.3 in NNE 14.5 mph 35.4 mph 77 % 0.0 in
13:27 7.2 °F 3.1 °F 1024.9 in NE 22.5 mph 35.4 mph 75 % 0.0 in
13:32 7.1 °F 3.3 °F 1025.3 in NNW 8.0 mph 35.4 mph 77 % 0.0 in
13:37 7.1 °F 3.2 °F 1025.3 in NW 12.9 mph 32.2 mph 76 % 0.0 in
13:42 7.1 °F 3.3 °F 1025.3 in NE 16.1 mph 32.2 mph 77 % 0.0 in
13:52 6.9 °F 3.1 °F 1025.3 in NNE 24.1 mph 33.8 mph 77 % 0.0 in
13:57 7.0 °F 3.4 °F 1025.3 in NNW 12.9 mph 35.4 mph 78 % 0.0 in
14:02 7.0 °F 3.1 °F 1025.3 in NNE 14.5 mph 35.4 mph 76 % 0.0 in
14:12 6.9 °F 3.3 °F 1025.3 in NW 8.0 mph 35.4 mph 78 % 0.0 in
14:17 6.9 °F 3.1 °F 1025.3 in NNE 12.9 mph 33.8 mph 77 % 0.0 in
14:32 6.8 °F 3.2 °F 1025.3 in NNW 14.5 mph 24.1 mph 78 % 0.0 in
14:42 6.8 °F 3.4 °F 1025.6 in NE 20.9 mph 33.8 mph 79 % 0.0 in
14:47 6.9 °F 3.7 °F 1025.6 in NW 9.7 mph 30.6 mph 80 % 0.0 in
14:52 6.8 °F 3.4 °F 1025.6 in North 16.1 mph 30.6 mph 79 % 0.0 in
14:57 6.7 °F 3.3 °F 1026.0 in NE 19.3 mph 33.8 mph 79 % 0.0 in
15:02 6.4 °F 3.4 °F 1026.0 in NE 12.9 mph 33.8 mph 81 % 0.0 in
15:12 6.1 °F 3.1 °F 1026.0 in NE 19.3 mph 33.8 mph 81 % 0.0 in
15:17 5.9 °F 3.4 °F 1026.3 in NNE 12.9 mph 30.6 mph 84 % 0.0 in
15:22 5.8 °F 3.5 °F 1026.3 in NNE 11.3 mph 30.6 mph 85 % 0.0 in
15:32 5.9 °F 3.9 °F 1026.6 in North 9.7 mph 25.7 mph 87 % 0.0 in
15:37 5.9 °F 3.7 °F 1026.6 in NNE 4.8 mph 20.9 mph 86 % 0.0 in
15:42 6.0 °F 3.7 °F 1026.6 in North 9.7 mph 20.9 mph 85 % 0.0 in
15:52 5.9 °F 3.7 °F 1026.6 in NNE 8.0 mph 24.1 mph 86 % 0.0 in
15:57 6.0 °F 3.8 °F 1026.6 in NNW 9.7 mph 19.3 mph 86 % 0.0 in
16:07 6.1 °F 3.9 °F 1026.6 in North 14.5 mph 24.1 mph 86 % 0.0 in
16:12 6.1 °F 3.9 °F 1027.0 in North 9.7 mph 24.1 mph 86 % 0.0 in
16:22 5.9 °F 3.7 °F 1027.3 in NNE 17.7 mph 20.9 mph 86 % 0.0 in
16:27 5.9 °F 3.7 °F 1027.3 in NNE 4.8 mph 25.7 mph 86 % 0.0 in
16:32 5.9 °F 3.9 °F 1027.3 in NNW 14.5 mph 25.7 mph 87 % 0.0 in
16:42 5.9 °F 3.9 °F 1027.3 in NNW 9.7 mph 24.1 mph 87 % 0.0 in
16:47 5.9 °F 3.9 °F 1027.7 in NW 3.2 mph 24.1 mph 87 % 0.0 in
16:57 5.9 °F 3.9 °F 1027.7 in NE 3.2 mph 22.5 mph 87 % 0.0 in
17:02 5.9 °F 3.9 °F 1027.7 in NE 11.3 mph 22.5 mph 87 % 0.0 in
17:12 5.9 °F 3.9 °F 1027.7 in NNE 9.7 mph 19.3 mph 87 % 0.0 in
17:17 5.9 °F 3.9 °F 1027.7 in NNE 1.6 mph 20.9 mph 87 % 0.0 in
17:22 5.8 °F 3.8 °F 1028.0 in NNW 4.8 mph 20.9 mph 87 % 0.0 in
17:32 5.8 °F 3.8 °F 1027.7 in NNW 9.7 mph 20.9 mph 87 % 0.0 in
17:37 5.7 °F 3.7 °F 1027.7 in NNW 6.4 mph 17.7 mph 87 % 0.0 in
17:47 5.7 °F 3.7 °F 1028.0 in NNE 12.9 mph 17.7 mph 87 % 0.0 in
17:52 5.7 °F 3.9 °F 1028.0 in North 8.0 mph 17.7 mph 88 % 0.0 in
17:57 5.7 °F 3.9 °F 1028.3 in North 9.7 mph 17.7 mph 88 % 0.0 in
18:02 5.7 °F 3.9 °F 1028.3 in North 4.8 mph 17.7 mph 88 % 0.0 in
18:07 5.7 °F 3.9 °F 1028.3 in NNE 16.1 mph 24.1 mph 88 % 0.0 in
18:12 5.7 °F 3.9 °F 1028.7 in NNE 14.5 mph 20.9 mph 88 % 0.0 in
18:17 5.7 °F 3.7 °F 1028.7 in NNW 12.9 mph 20.9 mph 87 % 0.0 in
18:22 5.8 °F 3.8 °F 1028.7 in North 14.5 mph 22.5 mph 87 % 0.0 in
18:32 5.8 °F 3.8 °F 1028.3 in North 3.2 mph 22.5 mph 87 % 0.0 in
18:42 5.7 °F 3.7 °F 1028.7 in NNW 11.3 mph 22.5 mph 87 % 0.0 in
18:47 5.7 °F 3.7 °F 1028.7 in North 12.9 mph 17.7 mph 87 % 0.0 in
18:52 5.7 °F 3.7 °F 1028.7 in NNW 14.5 mph 17.7 mph 87 % 0.0 in
18:57 5.7 °F 3.7 °F 1028.7 in NE 4.8 mph 20.9 mph 87 % 0.0 in
19:07 5.7 °F 3.7 °F 1029.0 in NNE 8.0 mph 20.9 mph 87 % 0.0 in
19:12 5.7 °F 3.7 °F 1029.0 in NNE 9.7 mph 20.9 mph 87 % 0.0 in
19:17 5.7 °F 3.7 °F 1029.0 in NNE 6.4 mph 20.9 mph 87 % 0.0 in
19:22 5.7 °F 3.9 °F 1029.3 in North 9.7 mph 20.9 mph 88 % 0.0 in
19:32 5.7 °F 3.9 °F 1029.3 in NE 9.7 mph 17.7 mph 88 % 0.0 in
19:42 5.7 °F 3.9 °F 1029.3 in NW 3.2 mph 19.3 mph 88 % 0.0 in
19:47 5.7 °F 3.9 °F 1029.3 in NNW 4.8 mph 19.3 mph 88 % 0.0 in
19:52 5.6 °F 3.8 °F 1029.7 in NNE 3.2 mph 19.3 mph 88 % 0.0 in
19:57 5.7 °F 3.9 °F 1029.7 in NNE 4.8 mph 19.3 mph 88 % 0.0 in
20:02 5.7 °F 3.9 °F 1029.7 in ENE 1.6 mph 19.3 mph 88 % 0.0 in
20:12 5.7 °F 3.9 °F 1029.7 in NNE 6.4 mph 19.3 mph 88 % 0.0 in
20:17 5.7 °F 3.9 °F 1030.0 in NW 3.2 mph 16.1 mph 88 % 0.0 in
20:22 5.6 °F 3.8 °F 1030.0 in NE 8.0 mph 16.1 mph 88 % 0.0 in
20:32 5.6 °F 3.8 °F 1030.0 in North 3.2 mph 12.9 mph 88 % 0.0 in
20:42 5.6 °F 3.9 °F 1030.4 in NNE 3.2 mph 16.1 mph 89 % 0.0 in
20:52 5.5 °F 3.8 °F 1030.4 in NNE 4.8 mph 16.1 mph 89 % 0.0 in
20:57 5.5 °F 3.8 °F 1030.4 in NNE 6.4 mph 16.1 mph 89 % 0.0 in
21:02 5.4 °F 3.7 °F 1030.4 in ENE 6.4 mph 16.1 mph 89 % 0.0 in
21:07 5.4 °F 3.7 °F 1030.4 in ENE 4.8 mph 12.9 mph 89 % 0.0 in
21:17 5.4 °F 3.7 °F 1030.4 in North 9.7 mph 16.1 mph 89 % 0.0 in
21:32 5.4 °F 3.7 °F 1030.4 in North 4.8 mph 16.1 mph 89 % 0.0 in
21:42 5.5 °F 3.7 °F 1030.7 in NNW 8.0 mph 14.5 mph 88 % 0.0 in
21:52 5.5 °F 3.7 °F 1030.7 in NE 6.4 mph 19.3 mph 88 % 0.0 in
21:57 5.5 °F 3.7 °F 1030.7 in North 1.6 mph 19.3 mph 88 % 0.0 in
22:02 5.5 °F 3.7 °F 1030.7 in NE 9.7 mph 19.3 mph 88 % 0.0 in
22:12 5.4 °F 3.7 °F 1030.7 in NNW 1.6 mph 12.9 mph 89 % 0.0 in
22:17 5.4 °F 3.7 °F 1030.7 in NNE 4.8 mph 12.9 mph 89 % 0.0 in
22:22 5.4 °F 3.7 °F 1030.7 in North 11.3 mph 12.9 mph 89 % 0.0 in
22:32 5.4 °F 3.7 °F 1030.7 in North 9.7 mph 16.1 mph 89 % 0.0 in
22:42 5.4 °F 3.7 °F 1031.0 in ENE 9.7 mph 17.7 mph 89 % 0.0 in
22:47 5.4 °F 3.7 °F 1031.0 in NNW 6.4 mph 12.9 mph 89 % 0.0 in
22:52 5.4 °F 3.7 °F 1031.0 in North 6.4 mph 12.9 mph 89 % 0.0 in
23:02 5.4 °F 3.6 °F 1031.0 in North 3.2 mph 14.5 mph 88 % 0.0 in
23:12 5.4 °F 3.4 °F 1031.4 in NNE 1.6 mph 11.3 mph 87 % 0.0 in
23:17 5.5 °F 3.3 °F 1031.4 in NNE 6.4 mph 11.3 mph 86 % 0.0 in
23:22 5.6 °F 3.4 °F 1031.4 in NNE 8.0 mph 11.3 mph 86 % 0.0 in
23:32 5.6 °F 3.3 °F 1031.7 in North 3.2 mph 14.5 mph 85 % 0.0 in
23:37 5.6 °F 3.3 °F 1031.7 in NNW 9.7 mph 14.5 mph 85 % 0.0 in
23:42 5.6 °F 3.3 °F 1032.1 in NE 3.2 mph 14.5 mph 85 % 0.0 in
23:52 5.6 °F 3.3 °F 1032.1 in North 6.4 mph 11.3 mph 85 % 0.0 in
23:57 5.6 °F 3.3 °F 1032.1 in NNE 4.8 mph 11.3 mph 85 % 0.0 in
Meteo18
Compliments of Weather Underground - 4 mb

Script developed by  Jim McMurry - jmcmurry@mwt.net Adapted for the template by  Wim van der Kuil - Leuven-Template.eu

You find our weather info also at:

European Weather Network

Weather Underground

Equipment we use:

Weather-station
Davis Vue

Weather-program
Meteobridge

Weather-server
Raspberry PI 2 B+

Provider
1 and 1

Davis Vue

Meteobridge

Raspberry PI 2 B+

1 and 1